This is the latest recevied weather packets stored in our database for station/object K1FFK-1. If no packets are shown the sender has not sent any weather packets the latest 10 day(s).
| Time | Temp. | Humidity | Pressure | Rain* | Wind** | Luminosity | Snow |
|---|---|---|---|---|---|---|---|
| 1777832494 | 0.56° C | 64% | 1010.5 hPa | 0 mm | - | - | - |
| 1777831893 | 0.56° C | 61% | 1010.1 hPa | 0 mm | - | - | - |
| 1777831294 | 0.56° C | 62% | 1010.4 hPa | 0 mm | - | - | - |
| 1777830694 | 0.56° C | 63% | 1010.3 hPa | 0 mm | - | - | - |
| 1777830093 | 0.56° C | 62% | 1010.2 hPa | 0 mm | - | - | - |
| 1777829494 | 0.56° C | 62% | 1010.2 hPa | 0 mm | - | - | - |
| 1777828893 | 0° C | 65% | 1010.2 hPa | 0 mm | - | - | - |
| 1777828294 | 0° C | 67% | 1010.1 hPa | 0 mm | - | - | - |
| 1777827694 | -0.56° C | 69% | 1010.2 hPa | 0 mm | - | - | - |
| 1777827095 | -0.56° C | 74% | 1010 hPa | 0 mm | - | - | - |
| 1777826493 | 0° C | 72% | 1010.3 hPa | 0 mm | - | - | - |
| 1777825894 | -0.56° C | 74% | 1010.3 hPa | 0 mm | - | - | - |
| 1777825294 | -0.56° C | 78% | 1010.2 hPa | 0 mm | - | - | - |
| 1777824694 | -0.56° C | 81% | 1010.3 hPa | 0 mm | - | - | - |
| 1777824093 | -0.56° C | 82% | 1010.3 hPa | 0 mm | - | - | - |
| 1777823494 | -1.11° C | 85% | 1010.2 hPa | 0 mm | - | - | - |
| 1777822894 | -1.11° C | 84% | 1010.2 hPa | 0 mm | - | - | - |
| 1777822294 | -1.11° C | 83% | 1010.1 hPa | 0 mm | - | - | - |
| 1777821694 | -1.67° C | 86% | 1010.1 hPa | 0 mm | - | - | - |
| 1777821094 | -1.67° C | 88% | 1010.1 hPa | 0 mm | - | - | - |
| 1777820494 | -1.67° C | 93% | 1010.1 hPa | 0 mm | - | - | - |
| 1777819893 | -2.22° C | 99% | 1010.1 hPa | 0 mm | - | - | - |
| 1777819294 | -2.22° C | 100% | 1010.1 hPa | 0 mm | - | - | - |
| 1777818694 | -2.22° C | 100% | 1010.2 hPa | 0 mm | - | - | - |
| 1777818094 | -2.22° C | 100% | 1010.2 hPa | 0 mm | - | - | - |
* Rain latest hour (hover to see other rain measurements)
** Current wind speed in m/s (hover to see current wind gust speed)